createdAt,value
2022-11-20T00:01:08.432Z,99501.55
2022-11-20T00:03:41.431Z,99497.73
2022-11-20T00:06:16.235Z,99499.46
2022-11-20T00:08:49.151Z,99501.33
2022-11-20T00:11:23.290Z,99499.25
2022-11-20T00:13:58.102Z,99495.09
2022-11-20T00:16:32.393Z,99498.18
2022-11-20T00:19:04.545Z,99496.58
2022-11-20T00:21:36.682Z,99495.35
2022-11-20T00:24:08.086Z,99496.17
2022-11-20T00:26:40.240Z,99490.58
2022-11-20T00:29:12.048Z,99485.34
2022-11-20T00:31:44.035Z,99487.58
2022-11-20T00:34:14.617Z,99485.66
2022-11-20T00:36:46.684Z,99487.89
2022-11-20T00:39:17.428Z,99488.04
2022-11-20T00:41:49.404Z,99484.36
2022-11-20T00:44:20.088Z,99480.55
2022-11-20T00:46:52.123Z,99481.13
2022-11-20T00:49:24.172Z,99484.03
2022-11-20T00:51:56.499Z,99481.76
2022-11-20T00:54:28.613Z,99480.81
2022-11-20T00:57:00.782Z,99482.31
2022-11-20T00:59:32.900Z,99488.66
2022-11-20T01:02:05.098Z,99493.58
2022-11-20T01:04:35.727Z,99489.45
2022-11-20T01:07:08.122Z,99485.20
2022-11-20T01:09:41.666Z,99486.43
2022-11-20T01:12:13.877Z,99483.39
2022-11-20T01:14:44.394Z,99492.07
2022-11-20T01:17:16.467Z,99490.52
2022-11-20T01:19:46.929Z,99491.06
2022-11-20T01:22:18.900Z,99484.33
2022-11-20T01:24:51.296Z,99482.64
2022-11-20T01:27:23.307Z,99479.38
2022-11-20T01:30:00.845Z,99475.58
2022-11-20T01:32:33.207Z,99467.14
2022-11-20T01:35:03.772Z,99464.40
2022-11-20T01:37:35.896Z,99461.14
2022-11-20T01:40:07.540Z,99461.30
2022-11-20T01:42:57.227Z,99460.10
2022-11-20T01:46:02.704Z,99459.25
2022-11-20T01:48:38.871Z,99455.80
2022-11-20T01:51:19.374Z,99462.21
2022-11-20T01:53:54.055Z,99462.05
2022-11-20T01:56:27.572Z,99459.77
2022-11-20T01:59:03.752Z,99464.44
2022-11-20T02:01:36.036Z,99463.15
2022-11-20T02:04:09.156Z,99469.52
2022-11-20T02:06:46.001Z,99467.88
2022-11-20T02:09:18.349Z,99463.02
2022-11-20T02:11:50.667Z,99459.80
2022-11-20T02:14:21.204Z,99453.60
2022-11-20T02:16:53.712Z,99447.77
2022-11-20T02:19:29.323Z,99444.04
2022-11-20T02:22:07.536Z,99442.91
2022-11-20T02:24:39.922Z,99448.55
2022-11-20T02:27:14.661Z,99443.20
2022-11-20T02:29:52.705Z,99446.45
2022-11-20T02:32:26.469Z,99446.39
2022-11-20T02:34:59.318Z,99449.45
2022-11-20T02:37:38.063Z,99451.89
2022-11-20T02:40:12.479Z,99455.68
2022-11-20T02:42:44.801Z,99453.93
2022-11-20T02:45:16.842Z,99454.65
2022-11-20T02:47:48.972Z,99458.64
2022-11-20T02:50:19.907Z,99464.16
2022-11-20T02:52:52.226Z,99459.46
2022-11-20T02:55:24.429Z,99459.11
2022-11-20T02:57:55.068Z,99462.23
2022-11-20T03:00:27.122Z,99465.94
2022-11-20T03:02:57.577Z,99466.86
2022-11-20T03:05:29.630Z,99462.81
2022-11-20T03:08:01.775Z,99459.38
2022-11-20T03:10:33.904Z,99464.27
2022-11-20T03:13:06.409Z,99463.98
2022-11-20T03:15:39.515Z,99461.91
2022-11-20T03:18:11.649Z,99457.91
2022-11-20T03:20:42.011Z,99460.66
2022-11-20T03:23:14.209Z,99458.27
2022-11-20T03:25:44.610Z,99461.61
2022-11-20T03:28:16.633Z,99464.72
2022-11-20T03:30:47.075Z,99467.28
2022-11-20T03:33:19.188Z,99467.61
2022-11-20T03:35:49.573Z,99467.45
2022-11-20T03:38:21.634Z,99465.58
2022-11-20T03:40:52.086Z,99465.08
2022-11-20T03:43:24.348Z,99466.83
2022-11-20T03:45:56.314Z,99467.35
2022-11-20T03:48:29.027Z,99467.56
2022-11-20T03:51:15.235Z,99469.98
2022-11-20T03:53:48.937Z,99471.21
2022-11-20T03:56:23.338Z,99476.96
2022-11-20T03:58:55.641Z,99479.13
2022-11-20T04:01:30.802Z,99473.46
2022-11-20T04:04:03.052Z,99474.69
2022-11-20T04:06:38.684Z,99474.15
2022-11-20T04:09:10.932Z,99473.80
2022-11-20T04:11:43.654Z,99475.19
2022-11-20T04:14:18.610Z,99473.27
2022-11-20T04:16:50.691Z,99473.23
2022-11-20T04:19:22.995Z,99469.23
2022-11-20T04:21:55.225Z,99465.61
2022-11-20T04:24:28.290Z,99467.85
2022-11-20T04:27:00.311Z,99470.61
2022-11-20T04:29:30.732Z,99467.52
2022-11-20T04:32:02.772Z,99463.89
2022-11-20T04:34:33.182Z,99464.05
2022-11-20T04:37:05.387Z,99459.20
2022-11-20T04:39:37.387Z,99457.95
2022-11-20T04:42:25.483Z,99454.98
2022-11-20T04:44:57.879Z,99448.92
2022-11-20T04:47:30.183Z,99448.35
2022-11-20T04:50:02.401Z,99443.89
2022-11-20T04:52:32.918Z,99439.09
2022-11-20T04:55:05.378Z,99436.08
2022-11-20T04:57:37.326Z,99433.05
2022-11-20T05:00:09.082Z,99432.26
2022-11-20T05:02:41.289Z,99435.02
2022-11-20T05:05:13.855Z,99436.40
2022-11-20T05:07:45.938Z,99440.90
2022-11-20T05:10:16.989Z,99434.67
2022-11-20T05:12:49.198Z,99440.88
2022-11-20T05:15:21.471Z,99441.52
2022-11-20T05:17:54.325Z,99439.27
2022-11-20T05:20:26.574Z,99439.77
2022-11-20T05:23:01.345Z,99437.48
2022-11-20T05:25:33.340Z,99438.66
2022-11-20T05:28:05.506Z,99436.93
2022-11-20T05:30:37.499Z,99437.45
2022-11-20T05:33:09.871Z,99435.20
2022-11-20T05:35:42.052Z,99434.49
2022-11-20T05:38:14.225Z,99432.61
2022-11-20T05:40:44.744Z,99431.56
2022-11-20T05:43:17.128Z,99432.08
2022-11-20T05:45:56.722Z,99431.73
2022-11-20T05:48:29.212Z,99427.77
2022-11-20T05:51:02.440Z,99423.48
2022-11-20T05:53:35.709Z,99422.67
2022-11-20T05:56:11.832Z,99423.36
2022-11-20T05:58:44.252Z,99426.12
2022-11-20T06:01:21.255Z,99425.61
2022-11-20T06:03:54.608Z,99424.41
2022-11-20T06:06:27.330Z,99422.48
2022-11-20T06:08:59.995Z,99425.79
2022-11-20T06:11:32.112Z,99425.29
2022-11-20T06:14:03.137Z,99426.53
2022-11-20T06:16:35.271Z,99427.08
2022-11-20T06:19:07.562Z,99424.81
2022-11-20T06:21:38.017Z,99425.31
2022-11-20T06:24:12.439Z,99423.56
2022-11-20T06:26:44.623Z,99422.38
2022-11-20T06:29:16.814Z,99421.15
2022-11-20T06:31:48.936Z,99421.45
2022-11-20T06:34:21.600Z,99418.61
2022-11-20T06:36:53.557Z,99415.77
2022-11-20T06:39:27.173Z,99415.37
2022-11-20T06:41:59.562Z,99407.71
2022-11-20T06:44:31.943Z,99402.95
2022-11-20T06:47:02.406Z,99400.48
2022-11-20T06:49:35.345Z,99397.39
2022-11-20T06:52:07.673Z,99398.39
2022-11-20T06:54:39.567Z,99399.39
2022-11-20T06:57:10.104Z,99399.19
2022-11-20T06:59:43.130Z,99395.73
2022-11-20T07:02:15.304Z,99393.95
2022-11-20T07:04:48.086Z,99392.11
2022-11-20T07:07:20.786Z,99388.65
2022-11-20T07:09:54.469Z,99390.55
2022-11-20T07:12:26.924Z,99393.48
2022-11-20T07:15:00.926Z,99389.73
2022-11-20T07:17:33.501Z,99383.91
2022-11-20T07:20:08.083Z,99379.69
2022-11-20T07:22:41.329Z,99374.95
2022-11-20T07:25:14.265Z,99373.45
2022-11-20T07:27:47.447Z,99374.31
2022-11-20T07:30:19.938Z,99367.56
2022-11-20T07:32:55.319Z,99360.29
2022-11-20T07:35:28.866Z,99355.29
2022-11-20T07:38:02.154Z,99356.01
2022-11-20T07:40:36.300Z,99349.05
2022-11-20T07:43:09.514Z,99343.66
2022-11-20T07:45:42.012Z,99342.56
2022-11-20T07:48:13.448Z,99339.61
2022-11-20T07:50:45.604Z,99341.11
2022-11-20T07:53:21.691Z,99347.23
2022-11-20T07:55:55.032Z,99351.54
2022-11-20T07:58:27.705Z,99356.73
2022-11-20T08:01:05.415Z,99355.20
2022-11-20T08:03:39.904Z,99355.54
2022-11-20T08:06:12.787Z,99358.84
2022-11-20T08:08:45.623Z,99362.39
2022-11-20T08:11:35.544Z,99359.54
2022-11-20T08:14:14.458Z,99356.84
2022-11-20T08:16:49.261Z,99354.80
2022-11-20T08:19:23.240Z,99352.63
2022-11-20T08:21:55.498Z,99359.58
2022-11-20T08:24:27.861Z,99361.09
2022-11-20T08:27:01.089Z,99358.28
2022-11-20T08:29:33.167Z,99358.88
2022-11-20T08:32:05.486Z,99355.43
2022-11-20T08:34:43.911Z,99358.10
2022-11-20T08:37:15.888Z,99352.11
2022-11-20T08:39:48.180Z,99353.02
2022-11-20T08:42:20.219Z,99356.98
2022-11-20T08:44:52.226Z,99357.04
2022-11-20T08:47:24.307Z,99349.73
2022-11-20T08:49:54.945Z,99352.64
2022-11-20T08:52:27.012Z,99347.79
2022-11-20T08:54:57.601Z,99356.20
2022-11-20T08:57:29.603Z,99353.95
2022-11-20T09:00:06.338Z,99348.04
2022-11-20T09:02:38.599Z,99349.27
2022-11-20T09:05:12.463Z,99346.06
2022-11-20T09:07:44.528Z,99340.98
2022-11-20T09:10:23.959Z,99334.21
2022-11-20T09:12:57.463Z,99333.61
2022-11-20T09:15:29.780Z,99331.74
2022-11-20T09:18:03.651Z,99331.55
2022-11-20T09:20:35.659Z,99331.45
2022-11-20T09:23:07.791Z,99333.40
2022-11-20T09:25:39.933Z,99330.88
2022-11-20T09:28:10.488Z,99334.26
2022-11-20T09:30:42.646Z,99328.76
2022-11-20T09:33:14.736Z,99320.04
2022-11-20T09:35:45.666Z,99320.15
2022-11-20T09:38:17.708Z,99317.19
2022-11-20T09:40:58.024Z,99312.79
2022-11-20T09:43:43.651Z,99308.04
2022-11-20T09:46:22.631Z,99302.96
2022-11-20T09:49:09.873Z,99303.79
2022-11-20T09:51:56.727Z,99308.71
2022-11-20T09:54:35.046Z,99310.42
2022-11-20T09:57:13.208Z,99309.81
2022-11-20T09:59:48.860Z,99302.27
2022-11-20T10:02:30.866Z,99296.55
2022-11-20T10:05:09.108Z,99292.00
2022-11-20T10:07:45.935Z,99287.58
2022-11-20T10:10:29.783Z,99285.59
2022-11-20T10:13:17.419Z,99286.16
2022-11-20T10:16:03.328Z,99286.11
2022-11-20T10:18:52.776Z,99282.65
2022-11-20T10:21:34.624Z,99283.98
2022-11-20T10:24:36.989Z,99279.52
2022-11-20T10:27:18.220Z,99273.63
2022-11-20T10:30:01.785Z,99268.98
2022-11-20T10:32:38.891Z,99262.89
2022-11-20T10:35:22.362Z,99260.75
2022-11-20T10:38:00.421Z,99261.73
2022-11-20T10:40:37.628Z,99259.27
2022-11-20T10:43:17.587Z,99261.45
2022-11-20T10:45:57.608Z,99263.91
2022-11-20T10:48:33.281Z,99268.05
2022-11-20T10:51:24.056Z,99264.63
2022-11-20T10:54:08.518Z,99264.84
2022-11-20T10:56:50.243Z,99251.60
2022-11-20T10:59:47.742Z,99250.16
2022-11-20T11:02:21.994Z,99241.13
2022-11-20T11:04:55.797Z,99240.11
2022-11-20T11:07:31.215Z,99239.88
2022-11-20T11:10:03.649Z,99236.37
2022-11-20T11:12:35.766Z,99233.16
2022-11-20T11:15:14.823Z,99232.84
2022-11-20T11:17:51.278Z,99234.20
2022-11-20T11:20:24.385Z,99234.83
2022-11-20T11:22:58.972Z,99235.61
2022-11-20T11:25:35.553Z,99236.30
2022-11-20T11:28:22.378Z,99231.42
2022-11-20T11:30:54.505Z,99229.75
2022-11-20T11:33:25.702Z,99230.64
2022-11-20T11:35:59.530Z,99230.06
2022-11-20T11:38:37.855Z,99233.52
2022-11-20T11:41:17.437Z,99237.27
2022-11-20T11:44:13.615Z,99236.77
2022-11-20T11:46:53.914Z,99244.46
2022-11-20T11:49:26.148Z,99242.48
2022-11-20T11:52:07.417Z,99235.94
2022-11-20T11:54:45.359Z,99216.20
2022-11-20T11:57:22.809Z,99205.91
2022-11-20T12:00:06.363Z,99209.14
2022-11-20T12:02:47.344Z,99203.00
2022-11-20T12:05:25.607Z,99193.05
2022-11-20T12:08:09.441Z,99183.19
2022-11-20T12:10:54.326Z,99182.15
2022-11-20T12:13:37.487Z,99174.23
2022-11-20T12:16:14.913Z,99183.33
2022-11-20T12:18:48.544Z,99181.74
2022-11-20T12:21:28.519Z,99176.55
2022-11-20T12:24:34.581Z,99175.80
2022-11-20T12:27:26.905Z,99178.77
2022-11-20T12:30:05.783Z,99178.80
2022-11-20T12:32:53.980Z,99181.16
2022-11-20T12:35:44.182Z,99182.62
2022-11-20T12:38:45.305Z,99175.90
2022-11-20T12:41:46.561Z,99168.02
2022-11-20T12:44:53.322Z,99159.80
2022-11-20T12:47:34.248Z,99149.21
2022-11-20T12:50:17.531Z,99147.45
2022-11-20T12:52:56.822Z,99147.34
2022-11-20T12:55:35.939Z,99144.95
2022-11-20T12:58:13.833Z,99149.17
2022-11-20T13:00:56.971Z,99148.30
2022-11-20T13:03:40.125Z,99147.21
2022-11-20T13:06:19.639Z,99145.20
2022-11-20T13:08:57.646Z,99143.90
2022-11-20T13:11:39.525Z,99147.63
2022-11-20T13:14:34.596Z,99148.54
2022-11-20T13:17:14.504Z,99139.42
2022-11-20T13:19:52.613Z,99135.48
2022-11-20T13:22:30.331Z,99126.59
2022-11-20T13:25:03.327Z,99120.64
2022-11-20T13:27:36.289Z,99117.06
2022-11-20T13:30:20.614Z,99118.88
2022-11-20T13:32:55.484Z,99119.95
2022-11-20T13:35:34.609Z,99122.86
2022-11-20T13:38:12.845Z,99115.96
2022-11-20T13:40:55.451Z,99109.67
2022-11-20T13:43:37.597Z,99106.48
2022-11-20T13:46:12.026Z,99104.31
2022-11-20T13:48:47.538Z,99103.09
2022-11-20T13:51:35.182Z,99106.03
2022-11-20T13:54:35.001Z,99107.89
2022-11-20T13:57:21.485Z,99098.84
2022-11-20T14:00:00.209Z,99092.91
2022-11-20T14:02:33.750Z,99085.36
2022-11-20T14:05:09.866Z,99088.44
2022-11-20T14:07:44.522Z,99084.19
2022-11-20T14:10:30.095Z,99090.80
2022-11-20T14:13:17.683Z,99087.03
2022-11-20T14:15:58.946Z,99092.83
2022-11-20T14:18:31.820Z,99100.63
2022-11-20T14:21:06.388Z,99106.30
2022-11-20T14:23:40.221Z,99102.09
2022-11-20T14:26:17.815Z,99095.34
2022-11-20T14:28:53.315Z,99092.42
2022-11-20T14:31:28.409Z,99092.52
2022-11-20T14:34:00.977Z,99090.68
2022-11-20T14:36:34.626Z,99089.01
2022-11-20T14:39:06.726Z,99080.19
2022-11-20T14:41:38.778Z,99076.38
2022-11-20T14:44:13.426Z,99074.06
2022-11-20T14:46:46.252Z,99068.23
2022-11-20T14:49:30.880Z,99067.39
2022-11-20T14:52:17.989Z,99058.09
2022-11-20T14:54:52.034Z,99053.61
2022-11-20T14:57:27.685Z,99051.05
2022-11-20T15:00:21.489Z,99051.29
2022-11-20T15:02:54.598Z,99049.95
2022-11-20T15:05:28.725Z,99046.83
2022-11-20T15:08:11.723Z,99048.89
2022-11-20T15:10:50.310Z,99050.48
2022-11-20T15:13:29.521Z,99045.45
2022-11-20T15:16:02.812Z,99040.27
2022-11-20T15:18:40.195Z,99040.80
2022-11-20T15:21:15.677Z,99039.00
2022-11-20T15:23:49.413Z,99030.79
2022-11-20T15:26:26.679Z,99030.19
2022-11-20T15:29:00.301Z,99029.48
2022-11-20T15:31:33.490Z,99030.08
2022-11-20T15:34:08.728Z,99034.50
2022-11-20T15:36:41.773Z,99034.85
2022-11-20T15:39:14.936Z,99038.29
2022-11-20T15:41:47.575Z,99035.79
2022-11-20T15:44:21.728Z,99035.64
2022-11-20T15:46:54.577Z,99046.36
2022-11-20T15:49:26.612Z,99042.16
2022-11-20T15:51:58.608Z,99035.20
2022-11-20T15:54:30.932Z,99031.02
2022-11-20T15:57:03.929Z,99027.30
2022-11-20T15:59:38.092Z,99029.44
2022-11-20T16:02:18.739Z,99029.73
2022-11-20T16:04:53.641Z,99027.53
2022-11-20T16:07:26.343Z,99021.39
2022-11-20T16:09:58.679Z,99026.39
2022-11-20T16:12:48.552Z,99031.60
2022-11-20T16:15:38.999Z,99034.98
2022-11-20T16:18:13.219Z,99033.84
2022-11-20T16:20:46.277Z,99034.11
2022-11-20T16:23:18.913Z,99023.30
2022-11-20T16:25:52.605Z,99020.23
2022-11-20T16:28:25.541Z,99017.98
2022-11-20T16:30:58.269Z,99012.29
2022-11-20T16:33:31.439Z,99011.61
2022-11-20T16:36:10.468Z,99011.60
2022-11-20T16:38:44.021Z,99010.71
2022-11-20T16:41:16.036Z,99011.27
2022-11-20T16:43:50.212Z,99005.48
2022-11-20T16:46:24.347Z,99001.12
2022-11-20T16:48:58.825Z,99002.86
2022-11-20T16:51:33.326Z,99007.39
2022-11-20T16:54:06.899Z,99010.95
2022-11-20T16:56:40.157Z,99011.84
2022-11-20T16:59:12.472Z,99013.11
2022-11-20T17:01:44.756Z,99018.02
2022-11-20T17:04:15.512Z,99016.02
2022-11-20T17:06:48.007Z,99016.92
2022-11-20T17:09:20.221Z,99008.77
2022-11-20T17:11:50.911Z,99010.89
2022-11-20T17:14:23.269Z,99009.05
2022-11-20T17:16:55.500Z,99010.49
2022-11-20T17:19:27.672Z,99007.48
2022-11-20T17:21:59.885Z,99008.21
2022-11-20T17:24:32.348Z,99000.87
2022-11-20T17:27:04.639Z,98995.52
2022-11-20T17:29:41.873Z,98988.94
2022-11-20T17:32:14.377Z,98989.70
2022-11-20T17:34:46.367Z,98982.89
2022-11-20T17:37:18.433Z,98982.75
2022-11-20T17:39:50.379Z,98996.49
2022-11-20T17:42:29.922Z,99009.20
2022-11-20T17:45:02.072Z,99015.25
2022-11-20T17:47:33.120Z,99013.45
2022-11-20T17:50:06.672Z,99013.76
2022-11-20T17:52:39.010Z,99007.27
2022-11-20T17:55:13.233Z,99006.41
2022-11-20T17:58:02.940Z,99005.86
2022-11-20T18:00:35.802Z,99005.83
2022-11-20T18:03:08.213Z,99003.88
2022-11-20T18:05:41.396Z,99009.34
2022-11-20T18:08:14.288Z,99013.23
2022-11-20T18:10:46.698Z,99020.44
2022-11-20T18:13:19.280Z,99016.81
2022-11-20T18:15:51.575Z,99020.91
2022-11-20T18:18:23.824Z,99021.98
2022-11-20T18:20:57.371Z,99023.09
2022-11-20T18:23:31.660Z,99024.69
2022-11-20T18:26:05.956Z,99020.43
2022-11-20T18:28:41.079Z,99015.25
2022-11-20T18:31:14.347Z,99013.20
2022-11-20T18:33:47.874Z,99018.31
2022-11-20T18:36:22.426Z,99012.89
2022-11-20T18:38:57.024Z,99006.67
2022-11-20T18:41:48.197Z,99011.55
2022-11-20T18:44:42.016Z,99016.01
2022-11-20T18:47:16.995Z,99025.60
2022-11-20T18:49:53.188Z,99022.77
2022-11-20T18:52:26.921Z,99027.27
2022-11-20T18:54:59.368Z,99023.39
2022-11-20T18:57:32.318Z,99023.52
2022-11-20T19:00:09.384Z,99028.58
2022-11-20T19:02:43.231Z,99029.64
2022-11-20T19:05:17.035Z,99031.08
2022-11-20T19:07:51.626Z,99033.43
2022-11-20T19:10:24.915Z,99030.64
2022-11-20T19:12:58.777Z,99028.38
2022-11-20T19:15:31.139Z,99031.13
2022-11-20T19:18:03.460Z,99031.02
2022-11-20T19:20:35.947Z,99034.73
2022-11-20T19:23:08.577Z,99040.39
2022-11-20T19:25:40.925Z,99038.37
2022-11-20T19:28:13.177Z,99038.54
2022-11-20T19:30:43.761Z,99039.48
2022-11-20T19:33:15.968Z,99043.30
2022-11-20T19:35:48.709Z,99039.87
2022-11-20T19:38:20.937Z,99035.59
2022-11-20T19:40:51.446Z,99041.38
2022-11-20T19:43:23.533Z,99039.34
2022-11-20T19:45:56.728Z,99035.34
2022-11-20T19:48:30.983Z,99028.91
2022-11-20T19:51:12.045Z,99028.04
2022-11-20T19:53:44.928Z,99028.33
2022-11-20T19:56:17.176Z,99029.23
2022-11-20T19:58:49.592Z,99025.09
2022-11-20T20:01:24.392Z,99031.48
2022-11-20T20:04:01.442Z,99027.89
2022-11-20T20:06:35.428Z,99025.48
2022-11-20T20:09:10.243Z,99027.90
2022-11-20T20:11:46.563Z,99025.11
2022-11-20T20:14:19.559Z,99025.75
2022-11-20T20:16:51.865Z,99023.13
2022-11-20T20:19:24.846Z,99023.15
2022-11-20T20:21:57.327Z,99023.19
2022-11-20T20:24:29.383Z,99023.02
2022-11-20T20:27:01.426Z,99020.81
2022-11-20T20:29:33.385Z,99016.90
2022-11-20T20:32:05.562Z,99015.21
2022-11-20T20:34:35.950Z,99016.82
2022-11-20T20:37:08.291Z,99015.91
2022-11-20T20:39:38.789Z,99014.27
2022-11-20T20:42:11.040Z,99016.14
2022-11-20T20:45:00.605Z,99020.27
2022-11-20T20:47:34.336Z,99018.53
2022-11-20T20:50:07.604Z,99019.19
2022-11-20T20:52:40.247Z,99028.12
2022-11-20T20:55:14.209Z,99028.35
2022-11-20T20:57:46.267Z,99034.35
2022-11-20T21:00:19.337Z,99032.52
2022-11-20T21:02:51.405Z,99034.55
2022-11-20T21:05:23.534Z,99032.08
2022-11-20T21:08:11.604Z,99030.79
2022-11-20T21:10:43.640Z,99033.80
2022-11-20T21:13:15.835Z,99034.77
2022-11-20T21:15:49.969Z,99033.86
2022-11-20T21:18:23.657Z,99039.05
2022-11-20T21:21:15.323Z,99040.35
2022-11-20T21:23:49.756Z,99035.14
2022-11-20T21:26:22.769Z,99032.89
2022-11-20T21:28:55.079Z,99031.52
2022-11-20T21:31:28.784Z,99030.90
2022-11-20T21:34:01.488Z,99035.73
2022-11-20T21:36:34.007Z,99036.69
2022-11-20T21:39:06.483Z,99036.84
2022-11-20T21:41:38.994Z,99035.83
2022-11-20T21:44:31.392Z,99038.83
2022-11-20T21:47:03.948Z,99039.16
2022-11-20T21:49:36.142Z,99043.37
2022-11-20T21:52:08.448Z,99039.48
2022-11-20T21:54:40.822Z,99042.95
2022-11-20T21:57:12.865Z,99043.44
2022-11-20T21:59:44.881Z,99044.97
2022-11-20T22:02:18.279Z,99042.29
2022-11-20T22:04:51.433Z,99036.89
2022-11-20T22:07:23.599Z,99034.38
2022-11-20T22:09:55.813Z,99035.08
2022-11-20T22:12:26.431Z,99037.48
2022-11-20T22:14:58.437Z,99035.48
2022-11-20T22:17:48.016Z,99041.64
2022-11-20T22:20:20.436Z,99042.22
2022-11-20T22:22:52.686Z,99040.82
2022-11-20T22:25:23.093Z,99035.26
2022-11-20T22:27:55.106Z,99033.67
2022-11-20T22:30:27.807Z,99028.30
2022-11-20T22:32:59.881Z,99026.58
2022-11-20T22:35:32.792Z,99020.51
2022-11-20T22:38:04.820Z,99023.02
2022-11-20T22:40:37.269Z,99026.41
2022-11-20T22:43:07.736Z,99026.69
2022-11-20T22:45:39.901Z,99026.78
2022-11-20T22:48:12.135Z,99028.14
2022-11-20T22:50:44.223Z,99021.52
2022-11-20T22:53:14.763Z,99028.88
2022-11-20T22:55:49.957Z,99028.65
2022-11-20T22:58:22.248Z,99032.96
2022-11-20T23:00:54.280Z,99035.66
2022-11-20T23:03:26.415Z,99035.73
2022-11-20T23:05:59.536Z,99032.21
2022-11-20T23:08:32.190Z,99025.06
2022-11-20T23:11:05.893Z,99024.11
2022-11-20T23:13:38.398Z,99024.92
2022-11-20T23:16:13.941Z,99028.97
2022-11-20T23:18:46.855Z,99028.76
2022-11-20T23:21:20.615Z,99032.61
2022-11-20T23:23:53.944Z,99032.94
2022-11-20T23:26:28.484Z,99026.21
2022-11-20T23:29:01.682Z,99026.16
2022-11-20T23:31:35.628Z,99029.88
2022-11-20T23:34:07.679Z,99026.88
2022-11-20T23:36:39.775Z,99021.59
2022-11-20T23:39:10.347Z,99027.59
2022-11-20T23:41:42.396Z,99030.48
2022-11-20T23:44:14.350Z,99029.55
2022-11-20T23:46:46.427Z,99033.16
2022-11-20T23:49:18.408Z,99031.52
2022-11-20T23:51:48.806Z,99025.34
2022-11-20T23:54:20.769Z,99016.41
2022-11-20T23:56:52.749Z,99011.45
2022-11-20T23:59:23.288Z,99001.37
